Time;durP1;ratioP1;P1;durP2;ratioP2;P2;SDS_P1;SDS_P2;PMS_P1;PMS_P2;Temp;Humidity;BMP_temperature;BMP_pressure;BME280_temperature;BME280_humidity;BME280_pressure;Samples;Min_cycle;Max_cycle;Signal;HPM_P1;HPM_P2
2022/01/21 00:00:15;;;;;;;6.90;1.53;;;5.90;73.20;;;;;;5097510;28;20024;-62
2022/01/21 00:02:41;;;;;;;8.47;2.47;;;5.90;73.20;;;;;;5097848;28;20347;-62
2022/01/21 00:05:07;;;;;;;12.13;2.73;;;5.90;73.30;;;;;;5088016;28;20405;-62
2022/01/21 00:07:33;;;;;;;9.67;2.40;;;5.90;73.30;;;;;;5077838;28;20025;-62
2022/01/21 00:09:59;;;;;;;9.37;2.13;;;5.90;73.40;;;;;;5085788;28;20032;-62
2022/01/21 00:12:27;;;;;;;9.07;2.13;;;5.90;73.40;;;;;;5097792;28;20035;-62
2022/01/21 00:14:53;;;;;;;7.83;1.40;;;5.90;73.50;;;;;;5094767;28;20032;-62
2022/01/21 00:17:21;;;;;;;10.20;2.03;;;5.90;73.60;;;;;;5096488;28;20038;-63
2022/01/21 00:19:49;;;;;;;8.03;2.60;;;5.80;73.60;;;;;;5086670;28;20116;-62
2022/01/21 00:30:27;;;;;;;7.90;1.40;;;5.80;73.80;;;;;;5086428;28;20076;-62
2022/01/21 00:32:53;;;;;;;9.40;2.43;;;5.80;73.90;;;;;;5095959;28;20094;-62
2022/01/21 00:35:20;;;;;;;9.37;1.80;;;5.80;73.90;;;;;;5094173;28;20024;-62
2022/01/21 00:37:47;;;;;;;14.10;2.70;;;5.80;74.00;;;;;;5092749;28;20028;-62
2022/01/21 00:40:22;;;;;;;7.30;1.53;;;5.80;74.10;;;;;;5078276;28;20331;-62
2022/01/21 00:43:31;;;;;;;7.70;1.87;;;5.70;74.10;;;;;;5075565;28;20024;-62
2022/01/21 00:45:40;;;;;;;11.23;2.10;;;5.70;74.10;;;;;;5082291;28;20035;-62
2022/01/21 00:48:06;;;;;;;9.60;2.50;;;5.70;74.20;;;;;;5094856;28;20032;-62
2022/01/21 00:50:32;;;;;;;10.77;2.53;;;5.70;74.30;;;;;;5082712;28;20029;-62
2022/01/21 00:52:58;;;;;;;8.17;1.80;;;5.70;74.30;;;;;;5075710;28;20036;-62
2022/01/21 00:55:23;;;;;;;7.83;2.27;;;5.70;74.30;;;;;;5081551;28;20039;-62
2022/01/21 00:57:49;;;;;;;10.40;2.07;;;5.70;74.40;;;;;;5096824;28;20032;-62
2022/01/21 01:00:15;;;;;;;11.47;2.20;;;5.80;74.50;;;;;;5087762;28;20058;-62
2022/01/21 01:02:41;;;;;;;10.83;2.17;;;5.70;74.50;;;;;;5096412;28;20024;-62
2022/01/21 01:05:09;;;;;;;8.80;2.23;;;5.70;74.60;;;;;;5094305;28;20089;-62
2022/01/21 01:07:35;;;;;;;10.17;2.30;;;5.70;74.60;;;;;;5076629;28;20032;-62
2022/01/21 01:10:04;;;;;;;12.00;2.13;;;5.70;74.60;;;;;;5083427;28;20043;-62
2022/01/21 01:20:24;;;;;;;8.70;1.70;;;5.60;74.60;;;;;;5087684;28;20047;-62
2022/01/21 01:23:05;;;;;;;9.87;2.10;;;5.60;74.70;;;;;;5075958;28;20445;-62
2022/01/21 01:28:15;;;;;;;8.20;2.10;;;5.50;74.70;;;;;;5096696;28;20024;-61
2022/01/21 01:30:41;;;;;;;10.00;2.10;;;5.50;74.80;;;;;;5083345;28;20133;-62
2022/01/21 01:33:09;;;;;;;7.47;2.03;;;5.50;74.80;;;;;;5095923;28;20066;-62
2022/01/21 01:35:36;;;;;;;13.73;2.00;;;5.50;74.80;;;;;;5095063;28;20046;-61
2022/01/21 01:51:25;;;;;;;11.67;2.47;;;5.60;74.60;;;;;;5094258;28;20028;-62
2022/01/21 01:54:06;;;;;;;10.73;2.50;;;5.60;74.50;;;;;;5095356;28;20031;-62
2022/01/21 01:56:38;;;;;;;7.95;2.35;;;5.60;74.50;;;;;;5089734;28;20326;-62
2022/01/21 01:59:03;;;;;;;12.00;2.35;;;5.60;74.50;;;;;;5094216;28;20034;-62
2022/01/21 02:01:29;;;;;;;10.60;2.53;;;5.60;74.40;;;;;;5088702;28;20039;-62
2022/01/21 02:03:55;;;;;;;11.97;2.13;;;5.60;74.40;;;;;;5095611;28;20131;-62
2022/01/21 02:06:21;;;;;;;7.63;1.70;;;5.70;74.40;;;;;;5094898;28;20461;-62
2022/01/21 02:08:47;;;;;;;10.90;2.77;;;5.70;74.30;;;;;;5094911;28;20024;-62
2022/01/21 02:11:13;;;;;;;11.17;2.43;;;5.70;74.30;;;;;;5093804;28;20062;-62
2022/01/21 02:13:43;;;;;;;15.07;3.27;;;5.70;74.20;;;;;;5094855;28;20058;-62
2022/01/21 02:17:11;;;;;;;9.90;2.43;;;5.70;74.20;;;;;;5094344;28;20043;-62
2022/01/21 02:21:45;;;;;;;10.97;2.93;;;5.70;74.10;;;;;;5093015;28;20040;-62
2022/01/21 02:24:22;;;;;;;12.60;2.93;;;5.70;74.10;;;;;;5095018;28;20020;-62
2022/01/21 02:26:50;;;;;;;13.60;2.43;;;5.70;74.00;;;;;;5097683;28;20089;-62
2022/01/21 02:29:27;;;;;;;8.73;2.00;;;5.70;73.90;;;;;;5094133;28;20443;-62
2022/01/21 02:31:54;;;;;;;12.97;2.43;;;5.70;73.90;;;;;;5088683;28;20093;-62
2022/01/21 02:34:21;;;;;;;10.20;2.57;;;5.70;73.90;;;;;;5093643;28;20032;-62
2022/01/21 02:36:46;;;;;;;6.73;1.87;;;5.70;73.90;;;;;;5093413;28;20066;-62
2022/01/21 02:39:12;;;;;;;11.07;2.13;;;5.60;73.90;;;;;;5093008;28;20071;-62
2022/01/21 02:41:38;;;;;;;10.87;2.33;;;5.60;74.50;;;;;;5092763;28;20357;-62
2022/01/21 02:44:04;;;;;;;11.13;2.27;;;5.60;73.90;;;;;;5094613;28;20025;-61
2022/01/21 02:46:35;;;;;;;9.57;2.17;;;5.60;73.90;;;;;;5093349;28;20027;-62
2022/01/21 02:49:01;;;;;;;;;;;5.60;74.00;;;;;;5081855;28;20016;-62
2022/01/21 02:51:27;;;;;;;13.37;2.30;;;5.50;73.90;;;;;;5092690;28;20233;-62
2022/01/21 02:56:20;;;;;;;9.33;2.37;;;5.50;74.00;;;;;;5093161;28;20093;-62
2022/01/21 02:58:47;;;;;;;7.47;1.57;;;5.50;74.10;;;;;;5092986;28;20036;-62
2022/01/21 03:01:14;;;;;;;10.73;2.23;;;5.50;74.10;;;;;;5092623;28;20376;-61
2022/01/21 03:03:42;;;;;;;13.20;2.80;;;5.40;74.10;;;;;;5093070;28;20020;-62
2022/01/21 03:06:08;;;;;;;8.90;2.00;;;5.40;74.10;;;;;;5093161;28;20016;-62
2022/01/21 03:08:33;;;;;;;10.33;1.70;;;5.40;74.10;;;;;;5092968;28;20101;-62
2022/01/21 03:10:59;;;;;;;8.83;2.00;;;5.40;74.10;;;;;;5092412;28;20035;-62
2022/01/21 03:13:24;;;;;;;5.37;1.83;;;5.40;74.10;;;;;;5096848;28;20043;-62
2022/01/21 03:15:51;;;;;;;16.17;2.60;;;5.40;74.10;;;;;;5098213;28;20028;-62
2022/01/21 03:18:17;;;;;;;11.43;2.57;;;5.30;74.10;;;;;;5088526;28;20421;-62
2022/01/21 03:20:44;;;;;;;9.57;2.20;;;5.40;74.20;;;;;;5096501;28;20032;-61
2022/01/21 03:23:15;;;;;;;5.40;1.73;;;5.30;74.20;;;;;;5096645;28;20039;-62
2022/01/21 03:25:44;;;;;;;7.00;1.87;;;5.30;74.20;;;;;;5097015;28;20028;-62
2022/01/21 03:28:11;;;;;;;8.70;1.90;;;5.30;74.30;;;;;;5096321;28;20043;-62
2022/01/21 03:30:38;;;;;;;10.27;2.20;;;5.30;74.30;;;;;;5096614;28;20376;-62
2022/01/21 03:33:09;;;;;;;10.47;1.90;;;5.30;74.30;;;;;;5096437;28;20387;-62
2022/01/21 03:35:36;;;;;;;13.10;2.50;;;5.30;74.30;;;;;;5096952;28;20038;-62
2022/01/21 03:38:02;;;;;;;11.77;2.30;;;5.30;74.30;;;;;;5095770;28;20028;-62
2022/01/21 03:40:29;;;;;;;8.50;2.43;;;5.40;74.40;;;;;;5096162;28;20395;-62
2022/01/21 03:42:55;;;;;;;12.30;2.23;;;5.30;74.30;;;;;;5097222;28;20040;-62
2022/01/21 03:45:21;;;;;;;11.50;2.50;;;5.30;74.30;;;;;;5079846;28;20135;-62
2022/01/21 03:47:46;;;;;;;10.93;2.03;;;5.30;74.40;;;;;;5096026;28;20409;-62
2022/01/21 03:52:46;;;;;;;10.40;2.37;;;5.30;74.40;;;;;;5096230;28;20036;-62
2022/01/21 03:55:11;;;;;;;8.87;1.67;;;5.30;74.40;;;;;;5097132;28;20228;-62
2022/01/21 03:57:37;;;;;;;8.57;1.67;;;5.30;74.40;;;;;;5095911;28;20028;-62
2022/01/21 04:00:08;;;;;;;11.30;2.20;;;5.30;74.40;;;;;;5095662;28;20028;-61
2022/01/21 04:02:41;;;;;;;8.07;1.80;;;5.30;74.50;;;;;;5097105;28;20024;-62
2022/01/21 04:05:09;;;;;;;10.17;1.93;;;5.20;74.50;;;;;;5095998;28;20020;-61
2022/01/21 04:07:36;;;;;;;8.57;1.90;;;5.20;74.40;;;;;;5096195;28;20456;-62
2022/01/21 04:10:03;;;;;;;10.97;1.83;;;5.20;75.00;;;;;;5095119;28;20057;-62
2022/01/21 04:12:29;;;;;;;7.80;1.97;;;5.20;74.40;;;;;;5095788;28;20356;-62
2022/01/21 04:14:56;;;;;;;12.97;2.43;;;5.20;74.40;;;;;;5096947;28;20028;-62
2022/01/21 04:17:23;;;;;;;10.97;2.40;;;5.20;74.40;;;;;;5095573;28;20403;-62
2022/01/21 04:19:48;;;;;;;9.50;1.80;;;5.20;74.30;;;;;;5095772;28;20150;-62
2022/01/21 04:22:14;;;;;;;9.03;1.80;;;5.20;74.40;;;;;;5095843;28;20474;-62
2022/01/21 04:24:44;;;;;;;12.70;2.20;;;5.20;74.30;;;;;;5095854;28;20093;-62
2022/01/21 04:27:10;;;;;;;9.17;2.20;;;5.20;74.30;;;;;;5095363;28;20085;-62
2022/01/21 04:29:36;;;;;;;10.20;2.07;;;5.20;74.40;;;;;;5094991;28;20465;-62
2022/01/21 04:32:04;;;;;;;12.90;2.43;;;5.10;74.30;;;;;;5095550;28;20114;-62
2022/01/21 04:34:32;;;;;;;7.60;2.07;;;5.20;74.30;;;;;;5086418;28;20038;-62
2022/01/21 04:37:00;;;;;;;8.43;1.97;;;5.20;74.30;;;;;;5095533;28;20406;-62
2022/01/21 04:39:35;;;;;;;10.30;2.03;;;5.10;74.30;;;;;;5095075;28;20024;-61
2022/01/21 04:47:34;;;;;;;5.77;1.70;;;5.20;74.30;;;;;;5094877;28;20028;-62
2022/01/21 04:50:08;;;;;;;15.27;2.00;;;5.20;74.20;;;;;;5095559;28;20130;-62
2022/01/21 04:52:35;;;;;;;9.17;2.40;;;5.20;74.20;;;;;;5095083;28;20081;-62
2022/01/21 04:55:19;;;;;;;17.73;1.90;;;5.20;74.20;;;;;;5096279;28;20074;-62
2022/01/21 04:57:45;;;;;;;11.37;2.43;;;5.20;74.30;;;;;;5094249;28;20047;-62
2022/01/21 05:00:11;;;;;;;7.03;1.57;;;5.20;74.30;;;;;;5095083;28;20031;-62
2022/01/21 05:02:39;;;;;;;8.60;1.70;;;5.20;74.40;;;;;;5095528;28;20448;-62
2022/01/21 05:05:09;;;;;;;13.43;2.53;;;5.20;74.40;;;;;;5095277;28;20016;-62
2022/01/21 05:07:37;;;;;;;12.07;2.07;;;5.20;74.30;;;;;;5095822;28;20081;-62
2022/01/21 05:10:04;;;;;;;11.27;1.93;;;5.20;74.40;;;;;;5094944;28;20399;-62
2022/01/21 05:12:30;;;;;;;7.87;1.90;;;5.20;74.40;;;;;;5093935;28;20097;-62
2022/01/21 05:17:29;;;;;;;12.55;2.20;;;5.20;74.40;;;;;;5094717;28;20035;-62
2022/01/21 05:19:54;;;;;;;12.10;2.00;;;5.20;74.40;;;;;;5093552;28;20368;-62
2022/01/21 05:22:38;;;;;;;7.80;1.73;;;5.20;74.40;;;;;;5095791;28;20059;-62
2022/01/21 05:25:05;;;;;;;7.83;2.10;;;5.10;74.40;;;;;;5094728;28;20021;-62
2022/01/21 05:27:30;;;;;;;9.73;1.60;;;5.20;74.50;;;;;;5094105;28;20028;-62
2022/01/21 05:29:57;;;;;;;11.17;2.03;;;5.20;74.50;;;;;;5094296;28;20087;-62
2022/01/21 05:32:29;;;;;;;7.40;1.80;;;5.10;74.50;;;;;;5078926;28;20024;-62
2022/01/21 05:35:05;;;;;;;8.30;1.97;;;5.10;74.50;;;;;;5093454;28;20356;-62
2022/01/21 05:37:49;;;;;;;7.00;1.80;;;5.10;74.50;;;;;;5093984;28;20132;-62
2022/01/21 05:40:37;;;;;;;10.50;1.53;;;5.10;74.50;;;;;;5093613;28;20135;-62
2022/01/21 05:43:08;;;;;;;14.55;2.38;;;5.20;74.50;;;;;;5093977;28;20016;-62
2022/01/21 05:49:02;;;;;;;7.93;1.20;;;5.10;74.60;;;;;;5009082;28;20412;-62
2022/01/21 05:51:38;;;;;;;6.40;1.77;;;5.10;74.60;;;;;;5013592;28;20046;-62
2022/01/21 05:54:25;;;;;;;11.73;2.13;;;5.10;74.70;;;;;;5009355;28;20049;-62
2022/01/21 05:57:01;;;;;;;7.87;1.80;;;5.10;74.70;;;;;;5008893;28;20387;-62
2022/01/21 05:59:29;;;;;;;7.07;1.87;;;5.10;74.70;;;;;;5011095;28;20033;-63
2022/01/21 06:01:55;;;;;;;7.63;2.10;;;5.10;74.70;;;;;;5012994;28;20447;-62
2022/01/21 06:04:21;;;;;;;8.30;1.93;;;5.10;74.80;;;;;;5011840;28;20025;-62
2022/01/21 06:06:46;;;;;;;15.20;2.30;;;5.10;74.80;;;;;;5002129;28;20088;-62
2022/01/21 06:09:12;;;;;;;7.43;1.57;;;5.10;74.80;;;;;;4987201;28;20041;-62
2022/01/21 06:11:38;;;;;;;8.13;1.97;;;5.10;74.80;;;;;;5013651;28;20112;-62
2022/01/21 06:14:04;;;;;;;8.63;2.23;;;5.10;74.80;;;;;;5010772;28;20101;-62
2022/01/21 06:16:30;;;;;;;11.07;1.93;;;5.10;74.80;;;;;;4996918;28;20117;-62
2022/01/21 06:18:56;;;;;;;9.03;1.90;;;5.10;74.80;;;;;;5010808;28;20083;-62
2022/01/21 06:21:22;;;;;;;13.33;1.90;;;5.10;74.80;;;;;;5011785;28;20416;-62
2022/01/21 06:23:47;;;;;;;17.23;2.37;;;5.10;74.80;;;;;;5093764;28;20051;-62
2022/01/21 06:26:13;;;;;;;10.00;1.87;;;5.10;74.80;;;;;;5093532;28;20460;-62
2022/01/21 06:28:39;;;;;;;11.30;2.30;;;5.10;74.80;;;;;;5094287;28;20115;-61
2022/01/21 06:31:05;;;;;;;9.73;2.03;;;5.10;75.50;;;;;;5095105;28;20432;-62
2022/01/21 06:33:30;;;;;;;6.63;1.63;;;5.10;74.90;;;;;;5092876;28;20051;-62
2022/01/21 06:35:57;;;;;;;11.30;2.27;;;5.10;74.90;;;;;;5095042;28;20433;-62
2022/01/21 06:38:23;;;;;;;10.27;2.00;;;5.10;74.90;;;;;;5095066;28;20417;-62
2022/01/21 06:40:49;;;;;;;6.80;2.13;;;5.10;74.90;;;;;;5094696;28;20077;-62
2022/01/21 06:43:16;;;;;;;9.73;2.20;;;5.20;75.00;;;;;;5094029;28;20024;-62
2022/01/21 06:45:45;;;;;;;11.23;2.33;;;5.20;75.10;;;;;;5094256;28;20028;-62
2022/01/21 06:48:10;;;;;;;7.70;2.00;;;5.20;75.10;;;;;;5094165;28;20020;-62
2022/01/21 06:50:38;;;;;;;5.63;1.67;;;5.20;75.20;;;;;;5094560;28;20024;-62
2022/01/21 06:53:04;;;;;;;9.17;1.87;;;5.20;75.20;;;;;;5094154;28;20039;-62
2022/01/21 06:55:29;;;;;;;10.97;1.87;;;5.20;75.20;;;;;;5094550;28;20024;-62
2022/01/21 06:57:55;;;;;;;7.00;1.77;;;5.20;75.20;;;;;;5093914;28;20032;-62
2022/01/21 07:00:22;;;;;;;9.43;2.17;;;5.30;75.20;;;;;;5094356;28;20089;-62
2022/01/21 07:02:50;;;;;;;8.43;1.80;;;5.30;75.20;;;;;;5094672;28;20032;-62
2022/01/21 07:05:16;;;;;;;10.37;2.20;;;5.40;75.30;;;;;;5094947;28;20043;-62
2022/01/21 07:07:43;;;;;;;9.93;1.97;;;5.40;75.20;;;;;;5094067;28;20031;-62
2022/01/21 07:10:11;;;;;;;9.17;1.43;;;5.40;75.20;;;;;;5093137;28;20028;-62
2022/01/21 07:12:37;;;;;;;10.77;1.87;;;5.40;75.30;;;;;;5093589;28;20397;-62
2022/01/21 07:15:04;;;;;;;7.93;1.83;;;5.50;75.30;;;;;;5093813;28;20024;-62
2022/01/21 07:17:30;;;;;;;7.60;2.27;;;5.50;75.30;;;;;;5089482;28;20034;-63
2022/01/21 07:19:56;;;;;;;5.53;1.57;;;5.50;75.20;;;;;;5092845;28;20111;-64
2022/01/21 07:22:21;;;;;;;5.87;1.77;;;5.60;75.20;;;;;;5091797;28;20056;-63
2022/01/21 07:24:47;;;;;;;9.57;1.90;;;5.60;75.30;;;;;;5093420;28;20032;-64
2022/01/21 07:27:13;;;;;;;8.03;1.90;;;5.60;75.20;;;;;;5093615;28;20082;-63
2022/01/21 07:29:38;;;;;;;5.97;1.80;;;5.60;75.30;;;;;;5093846;28;20048;-63
2022/01/21 07:32:04;;;;;;;9.97;1.97;;;5.60;75.30;;;;;;5094118;28;20036;-63
2022/01/21 07:34:30;;;;;;;8.03;1.63;;;5.60;75.30;;;;;;5093572;28;20039;-64
2022/01/21 07:36:56;;;;;;;9.57;1.40;;;5.60;75.30;;;;;;5093122;28;20028;-63
2022/01/21 07:39:22;;;;;;;7.13;1.90;;;5.60;75.30;;;;;;5092239;28;20173;-64
2022/01/21 07:41:48;;;;;;;8.87;1.70;;;5.60;75.40;;;;;;5092870;28;20028;-64
2022/01/21 07:44:16;;;;;;;7.63;2.03;;;5.50;75.30;;;;;;5093775;28;20032;-64
2022/01/21 07:46:43;;;;;;;12.30;2.07;;;5.50;75.40;;;;;;5093546;28;20427;-64
2022/01/21 07:49:10;;;;;;;9.07;1.93;;;5.50;75.50;;;;;;5093844;28;20421;-63
2022/01/21 07:51:36;;;;;;;9.17;1.93;;;5.50;75.50;;;;;;5093096;28;20043;-63
2022/01/21 07:54:03;;;;;;;10.27;2.07;;;5.60;75.50;;;;;;5092406;28;20146;-63
2022/01/21 07:56:30;;;;;;;10.07;2.10;;;5.60;75.50;;;;;;5092864;28;20344;-63
2022/01/21 07:58:55;;;;;;;8.50;2.10;;;5.60;75.50;;;;;;5096597;28;20073;-63
2022/01/21 08:01:21;;;;;;;10.13;2.27;;;5.60;75.50;;;;;;5097208;28;20055;-62
2022/01/21 08:03:47;;;;;;;9.87;2.00;;;5.60;75.50;;;;;;5097434;28;20028;-63
2022/01/21 08:06:13;;;;;;;9.40;2.30;;;5.60;75.50;;;;;;5097207;28;20024;-62
2022/01/21 08:08:38;;;;;;;10.33;2.30;;;5.60;75.50;;;;;;5097298;28;20046;-62
2022/01/21 08:11:04;;;;;;;6.77;1.90;;;5.60;75.50;;;;;;5096987;28;20154;-62
2022/01/21 08:13:30;;;;;;;8.50;2.37;;;5.70;75.60;;;;;;5097333;28;20090;-62
2022/01/21 08:15:56;;;;;;;8.50;2.13;;;5.60;75.50;;;;;;5097126;28;20356;-62
2022/01/21 08:18:22;;;;;;;9.60;1.50;;;5.70;75.60;;;;;;5096719;28;20287;-62
2022/01/21 08:20:48;;;;;;;10.83;2.17;;;5.60;75.60;;;;;;5096366;28;20048;-64
2022/01/21 08:23:14;;;;;;;7.30;2.07;;;5.60;75.60;;;;;;5096729;28;20024;-63
2022/01/21 08:25:40;;;;;;;9.87;2.33;;;5.60;75.60;;;;;;5097127;28;20024;-63
2022/01/21 08:28:06;;;;;;;13.93;2.53;;;5.70;75.60;;;;;;5096508;28;20120;-62
2022/01/21 08:30:33;;;;;;;11.70;2.43;;;5.70;75.60;;;;;;5094271;28;20052;-63
2022/01/21 08:32:59;;;;;;;8.53;2.20;;;5.70;75.60;;;;;;5096015;28;20119;-63
2022/01/21 08:35:25;;;;;;;7.07;2.03;;;5.70;75.60;;;;;;5096518;28;20405;-63
2022/01/21 08:37:53;;;;;;;9.40;1.73;;;5.80;75.60;;;;;;5094813;28;20028;-63
2022/01/21 08:40:21;;;;;;;11.63;3.10;;;5.90;75.60;;;;;;5095798;28;20040;-63
2022/01/21 08:42:46;;;;;;;9.47;1.80;;;6.00;75.50;;;;;;5094249;28;20036;-63
2022/01/21 08:45:13;;;;;;;9.77;2.80;;;6.00;75.40;;;;;;5096542;28;20031;-63
2022/01/21 08:47:42;;;;;;;11.20;1.87;;;6.00;75.30;;;;;;5096397;28;20031;-63
2022/01/21 08:50:11;;;;;;;7.97;2.13;;;6.10;75.30;;;;;;5096108;28;20035;-63
2022/01/21 08:52:38;;;;;;;6.87;1.80;;;6.10;75.20;;;;;;5096017;28;20040;-63
2022/01/21 08:55:13;;;;;;;6.83;1.57;;;6.10;75.20;;;;;;5095352;28;20060;-63
2022/01/21 08:57:41;;;;;;;8.57;1.97;;;6.20;75.20;;;;;;5095049;28;20036;-63
2022/01/21 09:00:13;;;;;;;8.90;1.90;;;6.20;75.10;;;;;;5096171;28;20058;-63
2022/01/21 09:02:39;;;;;;;7.57;2.23;;;6.30;75.10;;;;;;5095042;28;20055;-63
2022/01/21 09:05:05;;;;;;;9.90;2.20;;;6.30;75.00;;;;;;5095890;28;20440;-63
2022/01/21 09:07:31;;;;;;;7.70;1.90;;;6.40;75.00;;;;;;5095668;28;20338;-63
2022/01/21 09:09:57;;;;;;;8.13;2.07;;;6.40;74.90;;;;;;5094097;28;20345;-63
2022/01/21 09:12:22;;;;;;;8.47;2.50;;;6.50;74.80;;;;;;5095263;28;20061;-63
2022/01/21 09:14:49;;;;;;;10.30;2.60;;;6.60;74.80;;;;;;5094919;28;20032;-63
2022/01/21 09:17:15;;;;;;;11.33;2.10;;;6.60;74.60;;;;;;5096070;28;20039;-63
2022/01/21 09:19:41;;;;;;;7.23;2.13;;;6.70;74.50;;;;;;5095214;28;20035;-63
2022/01/21 09:22:06;;;;;;;9.57;2.43;;;6.90;74.40;;;;;;5095084;28;20399;-62
2022/01/21 09:24:33;;;;;;;9.27;2.30;;;7.00;74.20;;;;;;5095809;28;20128;-61
2022/01/21 09:27:03;;;;;;;8.90;2.43;;;7.10;74.00;;;;;;5095393;28;20082;-61
2022/01/21 09:29:29;;;;;;;11.47;2.13;;;7.10;73.90;;;;;;5095723;28;20040;-63
2022/01/21 09:31:55;;;;;;;6.60;2.13;;;7.10;74.10;;;;;;5095946;28;20024;-61
2022/01/21 09:34:21;;;;;;;8.03;2.27;;;7.10;74.10;;;;;;5096127;28;20085;-61
2022/01/21 09:36:47;;;;;;;9.73;2.23;;;7.20;74.30;;;;;;5096052;28;20330;-61
2022/01/21 09:39:13;;;;;;;5.87;1.80;;;7.30;74.00;;;;;;5095729;28;20056;-61
2022/01/21 09:41:42;;;;;;;6.60;2.10;;;7.40;74.30;;;;;;5095335;28;20024;-61
2022/01/21 09:44:14;;;;;;;7.47;1.70;;;7.50;73.60;;;;;;5095349;28;20021;-62
2022/01/21 09:46:44;;;;;;;8.33;2.17;;;7.40;73.60;;;;;;5095522;28;20028;-61
2022/01/21 09:51:49;;;;;;;8.17;2.10;;;7.40;73.70;;;;;;5095802;28;20453;-63
2022/01/21 09:54:15;;;;;;;8.67;2.60;;;7.60;73.40;;;;;;5096045;28;20032;-63
2022/01/21 09:56:44;;;;;;;11.77;2.87;;;7.80;73.10;;;;;;5095375;28;20353;-63
2022/01/21 09:59:11;;;;;;;7.30;2.13;;;7.90;72.80;;;;;;5094907;28;20101;-61
2022/01/21 10:01:37;;;;;;;6.67;2.37;;;8.00;72.60;;;;;;5095389;28;20467;-61
2022/01/21 10:04:04;;;;;;;9.90;2.23;;;8.00;72.40;;;;;;5095240;28;20066;-61
2022/01/21 10:06:32;;;;;;;7.57;1.97;;;8.10;72.40;;;;;;5095312;28;20028;-62
2022/01/21 10:08:58;;;;;;;10.88;2.13;;;8.10;72.30;;;;;;5093865;28;20020;-61
2022/01/21 10:11:25;;;;;;;8.10;2.47;;;8.20;72.20;;;;;;5093752;28;20039;-62
2022/01/21 10:13:51;;;;;;;7.55;2.35;;;8.30;72.10;;;;;;5076911;28;20024;-62
2022/01/21 10:16:17;;;;;;;7.67;2.63;;;8.40;71.80;;;;;;5094858;28;20103;-61
2022/01/21 10:19:03;;;;;;;7.22;2.25;;;8.60;71.60;;;;;;5094764;28;20060;-62
2022/01/21 10:21:31;;;;;;;7.70;2.35;;;8.80;71.10;;;;;;5093319;28;20078;-62
2022/01/21 10:24:07;;;;;;;9.13;2.55;;;8.90;70.90;;;;;;5094651;28;20448;-62
2022/01/21 10:26:33;;;;;;;8.90;2.70;;;9.00;70.60;;;;;;5095041;28;20070;-62
2022/01/21 10:28:59;;;;;;;8.52;2.63;;;9.20;70.40;;;;;;5094958;28;20507;-62
2022/01/21 10:31:27;;;;;;;9.48;2.33;;;9.40;70.00;;;;;;5094828;28;20038;-62
2022/01/21 10:33:56;;;;;;;9.63;2.60;;;9.50;69.70;;;;;;5094232;28;20085;-62
2022/01/21 10:36:29;;;;;;;7.88;2.90;;;9.60;69.50;;;;;;5094445;28;20347;-62
2022/01/21 10:38:58;;;;;;;8.43;2.67;;;9.50;69.40;;;;;;5094417;28;20138;-62
2022/01/21 10:41:30;;;;;;;6.35;1.80;;;9.40;69.70;;;;;;5093708;28;20043;-62
2022/01/21 10:44:10;;;;;;;9.30;2.70;;;9.30;70.00;;;;;;5094743;28;20433;-62
2022/01/21 10:46:38;;;;;;;10.87;2.47;;;9.20;70.20;;;;;;5075916;28;20029;-62
2022/01/21 10:49:13;;;;;;;10.70;2.80;;;9.20;70.40;;;;;;5091798;28;20032;-62
2022/01/21 10:51:41;;;;;;;7.85;2.58;;;9.10;70.50;;;;;;5088246;28;20306;-62
2022/01/21 10:54:18;;;;;;;8.10;2.78;;;9.00;70.60;;;;;;5074298;28;20071;-62
2022/01/21 10:57:18;;;;;;;14.05;2.50;;;9.00;70.80;;;;;;5093822;28;20086;-62
2022/01/21 10:59:54;;;;;;;7.88;1.75;;;9.00;70.90;;;;;;5094182;28;20097;-62
2022/01/21 11:02:31;;;;;;;10.18;2.30;;;9.00;71.00;;;;;;5092028;28;20526;-62
2022/01/21 11:04:59;;;;;;;8.77;2.20;;;8.90;71.30;;;;;;5089245;28;20433;-62
2022/01/21 11:07:43;;;;;;;7.60;1.92;;;8.80;71.60;;;;;;5087332;28;20056;-62
2022/01/21 11:10:12;;;;;;;8.82;2.00;;;8.80;71.80;;;;;;5093949;28;20024;-62
2022/01/21 11:12:38;;;;;;;7.65;2.10;;;8.70;71.90;;;;;;5094560;28;20483;-62
2022/01/21 11:15:05;;;;;;;8.10;2.35;;;8.80;72.00;;;;;;5092608;28;20064;-62
2022/01/21 11:17:31;;;;;;;8.40;2.25;;;8.70;72.20;;;;;;5094555;28;20037;-62
2022/01/21 11:20:03;;;;;;;9.48;2.08;;;8.70;72.30;;;;;;5091456;28;20036;-62
2022/01/21 11:22:29;;;;;;;10.80;3.22;;;8.70;72.50;;;;;;5074586;28;20085;-63
2022/01/21 11:24:59;;;;;;;11.70;2.63;;;8.70;72.70;;;;;;5092815;28;20332;-62
2022/01/21 11:27:25;;;;;;;7.78;1.73;;;8.60;72.70;;;;;;5074499;28;20029;-63
2022/01/21 11:29:52;;;;;;;9.82;2.15;;;8.60;72.70;;;;;;5078563;28;20089;-63
2022/01/21 11:32:19;;;;;;;12.35;2.92;;;8.60;72.90;;;;;;5093590;28;20028;-63
2022/01/21 11:34:45;;;;;;;8.13;2.28;;;8.60;73.00;;;;;;5096389;28;20060;-63
2022/01/21 11:37:11;;;;;;;10.40;2.47;;;8.60;73.10;;;;;;5093850;28;20085;-62
2022/01/21 11:39:38;;;;;;;10.15;2.15;;;8.50;73.10;;;;;;5096123;28;20028;-62
2022/01/21 11:42:06;;;;;;;6.78;1.80;;;8.60;73.20;;;;;;5081278;28;20075;-62
2022/01/21 11:44:36;;;;;;;10.73;2.70;;;8.60;73.20;;;;;;5090971;28;20036;-63
2022/01/21 11:47:16;;;;;;;11.45;2.53;;;8.60;73.30;;;;;;5095567;28;20030;-62
2022/01/21 11:49:53;;;;;;;10.65;2.47;;;8.60;73.40;;;;;;5096442;28;20405;-62
2022/01/21 11:52:19;;;;;;;9.40;2.38;;;8.60;73.50;;;;;;5093601;28;20024;-63
2022/01/21 11:54:45;;;;;;;7.13;2.13;;;8.60;73.60;;;;;;5094868;28;20034;-62
2022/01/21 11:57:12;;;;;;;9.83;2.53;;;8.60;73.70;;;;;;5095110;28;20437;-62
2022/01/21 12:00:06;;;;;;;7.55;1.63;;;8.60;73.80;;;;;;5096432;28;20040;-63
2022/01/21 12:02:34;;;;;;;12.37;2.60;;;8.50;74.60;;;;;;5095299;28;20058;-64
2022/01/21 12:05:05;;;;;;;8.07;2.22;;;8.50;74.10;;;;;;5095819;28;20036;-62
2022/01/21 12:07:40;;;;;;;9.18;2.35;;;8.50;74.30;;;;;;5095321;28;20035;-63
2022/01/21 12:10:18;;;;;;;10.90;2.10;;;8.50;74.50;;;;;;5094645;28;20032;-62
2022/01/21 12:15:35;;;;;;;8.50;2.30;;;8.50;74.70;;;;;;5094900;28;20093;-62
2022/01/21 12:18:04;;;;;;;;;;;8.50;74.70;;;;;;5110132;28;20110;-62
2022/01/21 12:20:31;;;;;;;8.00;2.03;;;8.50;74.50;;;;;;5093690;28;19951;-62
2022/01/21 12:23:23;;;;;;;9.40;1.80;;;8.50;74.60;;;;;;5096803;28;20059;-62
2022/01/21 12:26:19;;;;;;;9.82;2.42;;;8.50;74.70;;;;;;5097171;28;20052;-62
2022/01/21 12:28:51;;;;;;;7.60;2.22;;;8.60;74.60;;;;;;5076941;28;20074;-62
2022/01/21 12:31:19;;;;;;;8.95;2.13;;;8.60;74.60;;;;;;5096602;28;20028;-62
2022/01/21 12:34:07;;;;;;;10.67;2.70;;;8.70;74.60;;;;;;5097075;28;20047;-62
2022/01/21 12:36:41;;;;;;;9.02;1.80;;;8.70;74.60;;;;;;5095614;28;20105;-62
2022/01/21 12:39:45;;;;;;;9.77;2.55;;;8.80;74.90;;;;;;5095972;28;20444;-62
2022/01/21 12:42:27;;;;;;;10.57;2.25;;;8.80;74.80;;;;;;5095391;28;20460;-62
2022/01/21 12:45:08;;;;;;;10.03;2.30;;;8.80;74.80;;;;;;5090161;28;20448;-62
2022/01/21 12:47:41;;;;;;;10.35;2.22;;;8.80;74.90;;;;;;5076389;28;20044;-62
2022/01/21 12:50:16;;;;;;;10.38;3.33;;;8.80;74.90;;;;;;5094692;28;20032;-62
2022/01/21 12:53:07;;;;;;;11.57;1.92;;;8.80;75.00;;;;;;5096350;28;20043;-62
2022/01/21 12:55:56;;;;;;;10.27;2.70;;;8.80;75.00;;;;;;5091885;28;20134;-62
2022/01/21 12:58:24;;;;;;;6.30;1.98;;;8.80;75.00;;;;;;5093049;28;20115;-62
2022/01/21 13:01:04;;;;;;;7.10;2.20;;;8.90;75.10;;;;;;5095986;28;20081;-62
2022/01/21 13:03:54;;;;;;;13.73;2.47;;;8.90;75.20;;;;;;5079405;28;20439;-62
2022/01/21 13:06:24;;;;;;;8.90;1.95;;;8.90;75.20;;;;;;5095393;28;20111;-63
2022/01/21 13:09:09;;;;;;;7.07;1.90;;;8.90;75.10;;;;;;5096056;28;20032;-62
2022/01/21 13:11:39;;;;;;;10.93;2.47;;;9.00;75.20;;;;;;5094836;28;20024;-63
2022/01/21 13:17:00;;;;;;;7.80;2.08;;;9.10;75.20;;;;;;5095319;28;20039;-62
2022/01/21 13:19:27;;;;;;;7.72;1.80;;;9.10;75.20;;;;;;5095914;28;20032;-63
2022/01/21 13:21:52;;;;;;;10.07;2.53;;;9.10;75.20;;;;;;5094587;28;20025;-62
2022/01/21 13:24:31;;;;;;;10.13;1.90;;;9.00;75.20;;;;;;5092126;28;20303;-62
2022/01/21 13:26:58;;;;;;;7.45;2.10;;;9.00;75.30;;;;;;5092564;28;20073;-62
2022/01/21 13:29:33;;;;;;;5.70;1.70;;;9.00;75.30;;;;;;5095624;28;20389;-63
2022/01/21 13:32:00;;;;;;;8.52;2.03;;;9.00;75.50;;;;;;5095135;28;20035;-63
2022/01/21 13:34:32;;;;;;;9.57;1.80;;;9.00;75.50;;;;;;5095514;28;20024;-63
2022/01/21 13:37:00;;;;;;;7.20;2.33;;;9.00;75.60;;;;;;5095242;28;20417;-63
2022/01/21 13:39:41;;;;;;;6.68;2.00;;;9.00;75.60;;;;;;5094326;28;20111;-63
2022/01/21 13:42:09;;;;;;;10.10;2.63;;;9.00;75.50;;;;;;5091381;28;20440;-63
2022/01/21 13:44:48;;;;;;;10.83;2.60;;;9.00;75.40;;;;;;5090171;28;20024;-63
2022/01/21 13:47:36;;;;;;;10.02;2.08;;;9.00;75.40;;;;;;5095127;28;20112;-64
2022/01/21 13:50:24;;;;;;;6.45;1.75;;;9.10;75.40;;;;;;5094015;28;20040;-64
2022/01/21 13:52:58;;;;;;;10.60;2.53;;;9.10;75.40;;;;;;5094917;28;20315;-63
2022/01/21 13:55:26;;;;;;;5.13;2.22;;;9.10;75.40;;;;;;5094280;28;20032;-63
2022/01/21 13:57:53;;;;;;;13.48;2.80;;;9.10;75.30;;;;;;5094111;28;20039;-63
2022/01/21 14:00:34;;;;;;;8.25;2.22;;;9.10;75.30;;;;;;5093945;28;20032;-64
2022/01/21 14:03:08;;;;;;;8.32;2.08;;;9.10;75.20;;;;;;5093656;28;20333;-63